Terminal Aerodrome Forecast
Issued by NWS

Home | Current Version | Previous Version | Text Only | Print | Product List | Glossary On
Versions: 1 2 3 4 5 6 7 8 9 10 11 12
000
FTUS45 KREV 291120
TAFCXP
TAF
KCXP 291120Z 2912/3012 VRB03KT P6SM SCT200
     FM292100 10008KT P6SM SCT100 BKN180
     FM300200 24010G16KT P6SM BKN070 BKN140
     FM301000 20015G25KT P6SM BKN070 BKN150=

USA.gov is the U.S. government's official web portal to all federal, state and local government web resources and services.